sensor_id;sensor_type;location;lat;lon;timestamp;pressure;altitude;pressure_sealevel;temperature;humidity
21545;BME280;10933;50.754;11.508;2024-01-25T00:00:20;100458.72;;;8.69;100.00
21545;BME280;10933;50.754;11.508;2024-01-25T00:02:46;100452.81;;;8.54;100.00
21545;BME280;10933;50.754;11.508;2024-01-25T00:05:12;100458.44;;;8.46;100.00
21545;BME280;10933;50.754;11.508;2024-01-25T00:07:52;100454.69;;;8.53;100.00
21545;BME280;10933;50.754;11.508;2024-01-25T00:10:18;100455.44;;;8.67;100.00
21545;BME280;10933;50.754;11.508;2024-01-25T00:12:44;100451.19;;;8.46;100.00
21545;BME280;10933;50.754;11.508;2024-01-25T00:15:11;100460.53;;;8.44;100.00
21545;BME280;10933;50.754;11.508;2024-01-25T00:17:37;100465.06;;;8.43;100.00
21545;BME280;10933;50.754;11.508;2024-01-25T00:20:04;100464.63;;;8.46;100.00
21545;BME280;10933;50.754;11.508;2024-01-25T00:22:31;100451.03;;;8.35;100.00
21545;BME280;10933;50.754;11.508;2024-01-25T00:24:58;100457.06;;;8.23;100.00
21545;BME280;10933;50.754;11.508;2024-01-25T00:27:24;100460.28;;;8.52;100.00
21545;BME280;10933;50.754;11.508;2024-01-25T00:29:50;100462.19;;;8.32;100.00
21545;BME280;10933;50.754;11.508;2024-01-25T00:32:16;100448.97;;;8.37;100.00
21545;BME280;10933;50.754;11.508;2024-01-25T00:34:43;100455.97;;;8.44;100.00
21545;BME280;10933;50.754;11.508;2024-01-25T00:37:09;100459.34;;;8.26;100.00
21545;BME280;10933;50.754;11.508;2024-01-25T00:39:36;100456.81;;;8.38;100.00
21545;BME280;10933;50.754;11.508;2024-01-25T00:42:06;100457.22;;;8.42;100.00
21545;BME280;10933;50.754;11.508;2024-01-25T00:44:32;100448.56;;;8.40;100.00
21545;BME280;10933;50.754;11.508;2024-01-25T00:46:59;100461.81;;;8.21;100.00
21545;BME280;10933;50.754;11.508;2024-01-25T00:49:26;100459.28;;;8.33;100.00
21545;BME280;10933;50.754;11.508;2024-01-25T00:51:58;100468.84;;;8.22;100.00
21545;BME280;10933;50.754;11.508;2024-01-25T00:54:25;100459.41;;;8.00;100.00
21545;BME280;10933;50.754;11.508;2024-01-25T00:56:51;100469.38;;;7.93;100.00
21545;BME280;10933;50.754;11.508;2024-01-25T00:59:19;100465.13;;;8.23;100.00
21545;BME280;10933;50.754;11.508;2024-01-25T01:01:47;100471.00;;;8.01;100.00
21545;BME280;10933;50.754;11.508;2024-01-25T01:04:15;100471.84;;;8.01;100.00
21545;BME280;10933;50.754;11.508;2024-01-25T01:06:41;100474.28;;;8.09;100.00
21545;BME280;10933;50.754;11.508;2024-01-25T01:09:07;100472.50;;;7.90;100.00
21545;BME280;10933;50.754;11.508;2024-01-25T01:11:33;100474.28;;;8.09;100.00
21545;BME280;10933;50.754;11.508;2024-01-25T01:14:00;100476.69;;;8.24;100.00
21545;BME280;10933;50.754;11.508;2024-01-25T01:16:26;100480.91;;;8.13;100.00
21545;BME280;10933;50.754;11.508;2024-01-25T01:18:52;100494.56;;;7.98;100.00
21545;BME280;10933;50.754;11.508;2024-01-25T01:21:18;100489.00;;;7.93;100.00
21545;BME280;10933;50.754;11.508;2024-01-25T01:23:46;100498.25;;;8.17;100.00
21545;BME280;10933;50.754;11.508;2024-01-25T01:26:13;100493.28;;;8.14;100.00
21545;BME280;10933;50.754;11.508;2024-01-25T01:28:39;100501.94;;;8.23;100.00
21545;BME280;10933;50.754;11.508;2024-01-25T01:31:05;100496.53;;;8.36;100.00
21545;BME280;10933;50.754;11.508;2024-01-25T01:33:31;100488.22;;;8.44;100.00
21545;BME280;10933;50.754;11.508;2024-01-25T01:35:57;100491.03;;;8.63;100.00
21545;BME280;10933;50.754;11.508;2024-01-25T01:38:23;100494.88;;;8.42;100.00
21545;BME280;10933;50.754;11.508;2024-01-25T01:40:49;100500.84;;;8.44;100.00
21545;BME280;10933;50.754;11.508;2024-01-25T01:43:19;100484.06;;;8.48;100.00
21545;BME280;10933;50.754;11.508;2024-01-25T01:45:46;100493.81;;;8.43;100.00
21545;BME280;10933;50.754;11.508;2024-01-25T01:48:12;100496.31;;;8.38;100.00
21545;BME280;10933;50.754;11.508;2024-01-25T01:50:39;100496.44;;;8.56;100.00
21545;BME280;10933;50.754;11.508;2024-01-25T01:53:06;100506.84;;;8.46;100.00
21545;BME280;10933;50.754;11.508;2024-01-25T01:55:32;100504.81;;;8.35;100.00
21545;BME280;10933;50.754;11.508;2024-01-25T01:57:59;100501.88;;;8.43;100.00
21545;BME280;10933;50.754;11.508;2024-01-25T02:00:26;100498.38;;;8.36;100.00
21545;BME280;10933;50.754;11.508;2024-01-25T02:02:52;100492.19;;;8.35;100.00
21545;BME280;10933;50.754;11.508;2024-01-25T02:05:18;100481.22;;;8.37;100.00
21545;BME280;10933;50.754;11.508;2024-01-25T02:07:45;100492.19;;;8.35;100.00
21545;BME280;10933;50.754;11.508;2024-01-25T02:10:12;100497.13;;;8.45;100.00
21545;BME280;10933;50.754;11.508;2024-01-25T02:12:38;100501.47;;;8.33;100.00
21545;BME280;10933;50.754;11.508;2024-01-25T02:15:05;100495.91;;;8.34;100.00
21545;BME280;10933;50.754;11.508;2024-01-25T02:17:31;100491.03;;;7.98;100.00
21545;BME280;10933;50.754;11.508;2024-01-25T02:19:57;100499.72;;;8.13;100.00
21545;BME280;10933;50.754;11.508;2024-01-25T02:22:23;100494.94;;;8.15;100.00
21545;BME280;10933;50.754;11.508;2024-01-25T02:24:49;100477.56;;;8.11;100.00
21545;BME280;10933;50.754;11.508;2024-01-25T02:34:00;100464.78;;;8.13;100.00
21545;BME280;10933;50.754;11.508;2024-01-25T02:39:48;100470.53;;;8.10;100.00
21545;BME280;10933;50.754;11.508;2024-01-25T02:42:14;100466.03;;;8.04;100.00
21545;BME280;10933;50.754;11.508;2024-01-25T02:44:43;100470.63;;;7.90;100.00
21545;BME280;10933;50.754;11.508;2024-01-25T02:47:09;100475.34;;;7.95;100.00
21545;BME280;10933;50.754;11.508;2024-01-25T02:49:35;100479.44;;;8.11;100.00
21545;BME280;10933;50.754;11.508;2024-01-25T02:52:02;100477.56;;;8.11;100.00
21545;BME280;10933;50.754;11.508;2024-01-25T02:54:28;100479.94;;;7.88;100.00
21545;BME280;10933;50.754;11.508;2024-01-25T02:56:54;100475.13;;;7.96;100.00
21545;BME280;10933;50.754;11.508;2024-01-25T02:59:20;100477.63;;;7.98;100.00
21545;BME280;10933;50.754;11.508;2024-01-25T03:01:47;100477.56;;;8.11;100.00
21545;BME280;10933;50.754;11.508;2024-01-25T03:04:13;100479.25;;;7.99;100.00
21545;BME280;10933;50.754;11.508;2024-01-25T03:06:39;100486.28;;;8.00;100.00
21545;BME280;10933;50.754;11.508;2024-01-25T03:09:05;100490.25;;;7.84;100.00
21545;BME280;10933;50.754;11.508;2024-01-25T03:11:32;100493.81;;;7.65;100.00
21545;BME280;10933;50.754;11.508;2024-01-25T03:13:58;100503.50;;;7.73;100.00
21545;BME280;10933;50.754;11.508;2024-01-25T03:16:24;100508.22;;;7.84;100.00
21545;BME280;10933;50.754;11.508;2024-01-25T03:18:50;100491.34;;;7.63;100.00
21545;BME280;10933;50.754;11.508;2024-01-25T03:21:16;100488.84;;;7.68;100.00
21545;BME280;10933;50.754;11.508;2024-01-25T03:23:42;100493.81;;;7.45;100.00
21545;BME280;10933;50.754;11.508;2024-01-25T03:26:08;100483.91;;;7.46;100.00
21545;BME280;10933;50.754;11.508;2024-01-25T03:28:35;100474.41;;;7.43;100.00
21545;BME280;10933;50.754;11.508;2024-01-25T03:31:06;100489.47;;;7.57;100.00
21545;BME280;10933;50.754;11.508;2024-01-25T03:33:32;100493.81;;;7.58;100.00
21545;BME280;10933;50.754;11.508;2024-01-25T03:36:02;100481.88;;;7.28;100.00
21545;BME280;10933;50.754;11.508;2024-01-25T03:38:29;100484.13;;;7.51;100.00
21545;BME280;10933;50.754;11.508;2024-01-25T03:40:55;100499.19;;;7.52;100.00
21545;BME280;10933;50.754;11.508;2024-01-25T03:43:27;100502.28;;;7.55;100.00
21545;BME280;10933;50.754;11.508;2024-01-25T03:45:53;100498.16;;;7.46;100.00
21545;BME280;10933;50.754;11.508;2024-01-25T03:48:20;100513.66;;;7.31;100.00
21545;BME280;10933;50.754;11.508;2024-01-25T03:50:47;100525.22;;;7.51;100.00
21545;BME280;10933;50.754;11.508;2024-01-25T03:53:14;100536.78;;;7.58;100.00
21545;BME280;10933;50.754;11.508;2024-01-25T03:55:41;100535.13;;;7.44;100.00
21545;BME280;10933;50.754;11.508;2024-01-25T03:58:07;100545.44;;;7.74;100.00
21545;BME280;10933;50.754;11.508;2024-01-25T04:00:34;100549.38;;;7.78;100.00
21545;BME280;10933;50.754;11.508;2024-01-25T04:03:00;100561.97;;;7.77;100.00
21545;BME280;10933;50.754;11.508;2024-01-25T04:05:27;100575.19;;;7.79;100.00
21545;BME280;10933;50.754;11.508;2024-01-25T04:15:02;100557.66;;;7.63;100.00
21545;BME280;10933;50.754;11.508;2024-01-25T04:17:29;100567.56;;;7.56;100.00
21545;BME280;10933;50.754;11.508;2024-01-25T04:19:55;100567.13;;;7.46;100.00
21545;BME280;10933;50.754;11.508;2024-01-25T04:22:21;100588.41;;;7.54;100.00
21545;BME280;10933;50.754;11.508;2024-01-25T04:24:47;100574.97;;;7.34;100.00
21545;BME280;10933;50.754;11.508;2024-01-25T04:27:14;100577.28;;;7.50;100.00
21545;BME280;10933;50.754;11.508;2024-01-25T04:29:41;100571.47;;;7.60;100.00
21545;BME280;10933;50.754;11.508;2024-01-25T04:32:10;100562.81;;;7.58;100.00
21545;BME280;10933;50.754;11.508;2024-01-25T04:34:37;100562.81;;;7.51;100.00
21545;BME280;10933;50.754;11.508;2024-01-25T04:37:04;100567.53;;;7.36;100.00
21545;BME280;10933;50.754;11.508;2024-01-25T04:39:30;100556.19;;;7.47;100.00
21545;BME280;10933;50.754;11.508;2024-01-25T04:41:56;100562.78;;;7.25;100.00
21545;BME280;10933;50.754;11.508;2024-01-25T04:44:22;100564.47;;;7.39;100.00
21545;BME280;10933;50.754;11.508;2024-01-25T04:46:48;100569.00;;;7.45;100.00
21545;BME280;10933;50.754;11.508;2024-01-25T04:49:14;100580.97;;;7.49;100.00
21545;BME280;10933;50.754;11.508;2024-01-25T04:51:40;100580.38;;;7.54;100.00
21545;BME280;10933;50.754;11.508;2024-01-25T04:54:06;100582.66;;;7.63;100.00
21545;BME280;10933;50.754;11.508;2024-01-25T04:56:37;100587.16;;;7.56;100.00
21545;BME280;10933;50.754;11.508;2024-01-25T04:59:03;100595.41;;;7.48;100.00
21545;BME280;10933;50.754;11.508;2024-01-25T05:01:29;100598.53;;;7.45;100.00
21545;BME280;10933;50.754;11.508;2024-01-25T05:03:55;100596.88;;;7.44;100.00
21545;BME280;10933;50.754;11.508;2024-01-25T05:06:21;100599.56;;;7.44;100.00
21545;BME280;10933;50.754;11.508;2024-01-25T05:08:47;100590.25;;;7.27;100.00
21545;BME280;10933;50.754;11.508;2024-01-25T05:11:14;100604.94;;;7.51;100.00
21545;BME280;10933;50.754;11.508;2024-01-25T05:13:40;100600.78;;;7.48;100.00
21545;BME280;10933;50.754;11.508;2024-01-25T05:16:06;100606.19;;;7.55;100.00
21545;BME280;10933;50.754;11.508;2024-01-25T05:18:32;100606.13;;;7.35;100.00
21545;BME280;10933;50.754;11.508;2024-01-25T05:20:58;100620.81;;;7.39;100.00
21545;BME280;10933;50.754;11.508;2024-01-25T05:23:24;100630.28;;;7.35;100.00
21545;BME280;10933;50.754;11.508;2024-01-25T05:25:50;100637.16;;;7.51;100.00
21545;BME280;10933;50.754;11.508;2024-01-25T05:28:16;100630.09;;;7.36;100.00
21545;BME280;10933;50.754;11.508;2024-01-25T05:30:43;100644.59;;;7.55;100.00
21545;BME280;10933;50.754;11.508;2024-01-25T05:33:09;100639.63;;;7.52;100.00
21545;BME280;10933;50.754;11.508;2024-01-25T05:35:35;100650.38;;;7.52;100.00
21545;BME280;10933;50.754;11.508;2024-01-25T05:38:01;100646.44;;;7.42;100.00
21545;BME280;10933;50.754;11.508;2024-01-25T05:40:27;100653.88;;;7.53;100.00
21545;BME280;10933;50.754;11.508;2024-01-25T05:42:54;100660.53;;;7.63;100.00
21545;BME280;10933;50.754;11.508;2024-01-25T05:45:20;100659.88;;;7.61;100.00
21545;BME280;10933;50.754;11.508;2024-01-25T05:47:47;100670.41;;;7.56;100.00
21545;BME280;10933;50.754;11.508;2024-01-25T05:50:14;100676.81;;;7.55;100.00
21545;BME280;10933;50.754;11.508;2024-01-25T05:52:40;100680.50;;;7.48;100.00
21545;BME280;10933;50.754;11.508;2024-01-25T05:55:06;100683.22;;;7.61;100.00
21545;BME280;10933;50.754;11.508;2024-01-25T05:57:34;100693.72;;;7.49;100.00
21545;BME280;10933;50.754;11.508;2024-01-25T06:00:01;100688.78;;;7.53;100.00
21545;BME280;10933;50.754;11.508;2024-01-25T06:02:27;100701.97;;;7.48;100.00
21545;BME280;10933;50.754;11.508;2024-01-25T06:04:53;100696.19;;;7.37;100.00
21545;BME280;10933;50.754;11.508;2024-01-25T06:07:19;100699.06;;;7.36;100.00
21545;BME280;10933;50.754;11.508;2024-01-25T06:09:46;100683.56;;;7.31;100.00
21545;BME280;10933;50.754;11.508;2024-01-25T06:12:12;100691.47;;;7.59;100.00
21545;BME280;10933;50.754;11.508;2024-01-25T06:14:38;100702.97;;;7.33;100.00
21545;BME280;10933;50.754;11.508;2024-01-25T06:17:04;100698.25;;;7.42;100.00
21545;BME280;10933;50.754;11.508;2024-01-25T06:19:30;100681.78;;;7.52;100.00
21545;BME280;10933;50.754;11.508;2024-01-25T06:21:56;100707.75;;;7.45;100.00
21545;BME280;10933;50.754;11.508;2024-01-25T06:24:22;100708.63;;;7.58;100.00
21545;BME280;10933;50.754;11.508;2024-01-25T06:26:49;100727.84;;;7.55;100.00
21545;BME280;10933;50.754;11.508;2024-01-25T06:29:15;100724.31;;;7.61;100.00
21545;BME280;10933;50.754;11.508;2024-01-25T06:31:45;100726.75;;;7.43;100.00
21545;BME280;10933;50.754;11.508;2024-01-25T06:34:11;100736.91;;;7.61;100.00
21545;BME280;10933;50.754;11.508;2024-01-25T06:36:37;100738.78;;;7.60;100.00
21545;BME280;10933;50.754;11.508;2024-01-25T06:39:04;100749.13;;;7.63;100.00
21545;BME280;10933;50.754;11.508;2024-01-25T06:41:30;100748.72;;;7.66;100.00
21545;BME280;10933;50.754;11.508;2024-01-25T06:43:56;100755.13;;;7.65;100.00
21545;BME280;10933;50.754;11.508;2024-01-25T06:46:23;100744.97;;;7.61;100.00
21545;BME280;10933;50.754;11.508;2024-01-25T06:48:51;100754.50;;;7.63;100.00
21545;BME280;10933;50.754;11.508;2024-01-25T06:51:18;100735.03;;;7.48;100.00
21545;BME280;10933;50.754;11.508;2024-01-25T06:53:44;100752.41;;;7.52;100.00
21545;BME280;10933;50.754;11.508;2024-01-25T06:56:10;100743.50;;;7.45;100.00
21545;BME280;10933;50.754;11.508;2024-01-25T06:58:36;100754.88;;;7.54;100.00
21545;BME280;10933;50.754;11.508;2024-01-25T07:01:02;100760.66;;;7.51;100.00
21545;BME280;10933;50.754;11.508;2024-01-25T07:03:30;100765.59;;;7.47;100.00
21545;BME280;10933;50.754;11.508;2024-01-25T07:05:56;100772.19;;;7.45;100.00
21545;BME280;10933;50.754;11.508;2024-01-25T07:08:22;100769.75;;;7.50;100.00
21545;BME280;10933;50.754;11.508;2024-01-25T07:10:50;100773.03;;;7.45;100.00
21545;BME280;10933;50.754;11.508;2024-01-25T07:13:16;100776.31;;;7.47;100.00
21545;BME280;10933;50.754;11.508;2024-01-25T07:15:42;100778.31;;;7.25;100.00
21545;BME280;10933;50.754;11.508;2024-01-25T07:18:08;100790.81;;;7.53;100.00
21545;BME280;10933;50.754;11.508;2024-01-25T07:20:35;100792.03;;;7.44;100.00
21545;BME280;10933;50.754;11.508;2024-01-25T07:23:01;100796.81;;;7.61;100.00
21545;BME280;10933;50.754;11.508;2024-01-25T07:25:27;100799.13;;;7.71;100.00
21545;BME280;10933;50.754;11.508;2024-01-25T07:27:53;100798.72;;;7.67;100.00
21545;BME280;10933;50.754;11.508;2024-01-25T07:30:19;100802.41;;;7.60;100.00
21545;BME280;10933;50.754;11.508;2024-01-25T07:32:46;100801.97;;;7.50;100.00
21545;BME280;10933;50.754;11.508;2024-01-25T07:35:13;100807.34;;;7.56;100.00
21545;BME280;10933;50.754;11.508;2024-01-25T07:37:40;100812.34;;;7.66;100.00
21545;BME280;10933;50.754;11.508;2024-01-25T07:40:08;100808.25;;;7.77;100.00
21545;BME280;10933;50.754;11.508;2024-01-25T07:42:34;100812.50;;;7.51;100.00
21545;BME280;10933;50.754;11.508;2024-01-25T07:45:00;100816.03;;;7.58;100.00
21545;BME280;10933;50.754;11.508;2024-01-25T07:47:26;100820.16;;;7.61;100.00
21545;BME280;10933;50.754;11.508;2024-01-25T07:49:53;100821.97;;;7.47;100.00
21545;BME280;10933;50.754;11.508;2024-01-25T07:52:19;100822.44;;;7.57;100.00
21545;BME280;10933;50.754;11.508;2024-01-25T07:54:45;100810.66;;;7.52;100.00
21545;BME280;10933;50.754;11.508;2024-01-25T07:57:11;100800.69;;;7.39;100.00
21545;BME280;10933;50.754;11.508;2024-01-25T07:59:37;100823.06;;;7.59;100.00
21545;BME280;10933;50.754;11.508;2024-01-25T08:02:03;100829.72;;;7.63;100.00
21545;BME280;10933;50.754;11.508;2024-01-25T08:04:29;100834.69;;;7.73;100.00
21545;BME280;10933;50.754;11.508;2024-01-25T08:06:56;100827.81;;;7.57;100.00
21545;BME280;10933;50.754;11.508;2024-01-25T08:09:22;100849.38;;;7.84;100.00
21545;BME280;10933;50.754;11.508;2024-01-25T08:11:48;100844.22;;;7.76;100.00
21545;BME280;10933;50.754;11.508;2024-01-25T08:14:14;100848.16;;;7.80;100.00
21545;BME280;10933;50.754;11.508;2024-01-25T08:16:41;100850.16;;;7.71;100.00
21545;BME280;10933;50.754;11.508;2024-01-25T08:19:07;100847.41;;;7.51;100.00
21545;BME280;10933;50.754;11.508;2024-01-25T08:21:33;100857.38;;;7.64;100.00
21545;BME280;10933;50.754;11.508;2024-01-25T08:24:02;100859.88;;;7.65;100.00
21545;BME280;10933;50.754;11.508;2024-01-25T08:26:28;100864.22;;;7.66;100.00
21545;BME280;10933;50.754;11.508;2024-01-25T08:28:54;100859.47;;;7.68;100.00
21545;BME280;10933;50.754;11.508;2024-01-25T08:31:20;100859.31;;;7.77;100.00
21545;BME280;10933;50.754;11.508;2024-01-25T08:33:46;100846.91;;;7.76;100.00
21545;BME280;10933;50.754;11.508;2024-01-25T08:36:16;100843.44;;;7.95;100.00
21545;BME280;10933;50.754;11.508;2024-01-25T08:38:42;100845.91;;;7.90;100.00
21545;BME280;10933;50.754;11.508;2024-01-25T08:41:08;100850.25;;;7.91;100.00
21545;BME280;10933;50.754;11.508;2024-01-25T08:43:37;100857.78;;;8.15;100.00
21545;BME280;10933;50.754;11.508;2024-01-25T08:46:03;100854.41;;;7.93;100.00
21545;BME280;10933;50.754;11.508;2024-01-25T08:48:29;100856.03;;;7.88;100.00
21545;BME280;10933;50.754;11.508;2024-01-25T08:50:55;100854.25;;;8.15;100.00
21545;BME280;10933;50.754;11.508;2024-01-25T08:53:21;100857.59;;;8.30;100.00
21545;BME280;10933;50.754;11.508;2024-01-25T08:55:53;100874.41;;;8.72;100.00
21545;BME280;10933;50.754;11.508;2024-01-25T08:58:19;100870.88;;;9.11;100.00
21545;BME280;10933;50.754;11.508;2024-01-25T09:00:46;100876.66;;;9.21;100.00
21545;BME280;10933;50.754;11.508;2024-01-25T09:03:12;100899.69;;;9.88;100.00
21545;BME280;10933;50.754;11.508;2024-01-25T09:05:38;100897.31;;;9.67;100.00
21545;BME280;10933;50.754;11.508;2024-01-25T09:08:11;100891.59;;;8.97;100.00
21545;BME280;10933;50.754;11.508;2024-01-25T09:10:38;100899.88;;;8.82;100.00
21545;BME280;10933;50.754;11.508;2024-01-25T09:13:04;100891.59;;;9.17;100.00
21545;BME280;10933;50.754;11.508;2024-01-25T09:15:30;100891.63;;;9.04;100.00
21545;BME280;10933;50.754;11.508;2024-01-25T09:17:56;100892.03;;;8.94;100.00
21545;BME280;10933;50.754;11.508;2024-01-25T09:20:22;100898.00;;;9.29;100.00
21545;BME280;10933;50.754;11.508;2024-01-25T09:22:49;100912.66;;;10.56;100.00
21545;BME280;10933;50.754;11.508;2024-01-25T09:25:15;100905.69;;;10.98;100.00
21545;BME280;10933;50.754;11.508;2024-01-25T09:27:41;100907.47;;;10.86;100.00
21545;BME280;10933;50.754;11.508;2024-01-25T09:30:08;100903.47;;;10.64;100.00
21545;BME280;10933;50.754;11.508;2024-01-25T09:32:34;100903.84;;;10.42;100.00
21545;BME280;10933;50.754;11.508;2024-01-25T09:35:00;100907.88;;;11.33;100.00
21545;BME280;10933;50.754;11.508;2024-01-25T09:37:26;100910.16;;;10.86;100.00
21545;BME280;10933;50.754;11.508;2024-01-25T09:39:52;100902.22;;;10.91;100.00
21545;BME280;10933;50.754;11.508;2024-01-25T09:42:19;100920.44;;;10.71;100.00
21545;BME280;10933;50.754;11.508;2024-01-25T09:44:45;100903.78;;;10.49;100.00
21545;BME280;10933;50.754;11.508;2024-01-25T09:47:12;100915.91;;;10.65;100.00
21545;BME280;10933;50.754;11.508;2024-01-25T09:49:39;100918.34;;;10.73;100.00
21545;BME280;10933;50.754;11.508;2024-01-25T09:52:07;100928.75;;;10.38;100.00
21545;BME280;10933;50.754;11.508;2024-01-25T09:54:39;100918.44;;;10.59;100.00
21545;BME280;10933;50.754;11.508;2024-01-25T09:57:27;100916.34;;;11.18;100.00
21545;BME280;10933;50.754;11.508;2024-01-25T09:59:54;100928.16;;;10.29;100.00
21545;BME280;10933;50.754;11.508;2024-01-25T10:02:23;100935.41;;;11.23;100.00
21545;BME280;10933;50.754;11.508;2024-01-25T10:04:52;100933.03;;;11.08;100.00
21545;BME280;10933;50.754;11.508;2024-01-25T10:07:38;100940.63;;;10.61;100.00
21545;BME280;10933;50.754;11.508;2024-01-25T10:10:04;100946.47;;;10.90;100.00
21545;BME280;10933;50.754;11.508;2024-01-25T10:12:31;100931.28;;;10.64;100.00
21545;BME280;10933;50.754;11.508;2024-01-25T10:14:57;100946.50;;;11.58;100.00
21545;BME280;10933;50.754;11.508;2024-01-25T10:17:24;100934.84;;;10.58;100.00
21545;BME280;10933;50.754;11.508;2024-01-25T10:19:50;100933.34;;;10.69;100.00
21545;BME280;10933;50.754;11.508;2024-01-25T10:22:16;100930.88;;;10.60;100.00
21545;BME280;10933;50.754;11.508;2024-01-25T10:24:42;100939.13;;;10.72;100.00
21545;BME280;10933;50.754;11.508;2024-01-25T10:27:08;100936.91;;;10.18;100.00
21545;BME280;10933;50.754;11.508;2024-01-25T10:29:35;100938.69;;;9.92;100.00
21545;BME280;10933;50.754;11.508;2024-01-25T10:32:05;100945.34;;;9.77;100.00
21545;BME280;10933;50.754;11.508;2024-01-25T10:34:32;100945.75;;;9.80;100.00
21545;BME280;10933;50.754;11.508;2024-01-25T10:37:02;100941.63;;;9.64;100.00
21545;BME280;10933;50.754;11.508;2024-01-25T10:39:29;100940.81;;;9.70;100.00
21545;BME280;10933;50.754;11.508;2024-01-25T10:41:57;100932.34;;;10.12;100.00
21545;BME280;10933;50.754;11.508;2024-01-25T10:44:24;100936.53;;;10.08;100.00
21545;BME280;10933;50.754;11.508;2024-01-25T10:46:50;100932.06;;;9.82;100.00
21545;BME280;10933;50.754;11.508;2024-01-25T10:49:19;100942.63;;;9.83;100.00
21545;BME280;10933;50.754;11.508;2024-01-25T10:51:46;100935.56;;;10.40;100.00
21545;BME280;10933;50.754;11.508;2024-01-25T10:54:13;100939.16;;;10.66;100.00
21545;BME280;10933;50.754;11.508;2024-01-25T10:56:46;100930.72;;;10.87;100.00
21545;BME280;10933;50.754;11.508;2024-01-25T10:59:13;100930.38;;;11.27;100.00
21545;BME280;10933;50.754;11.508;2024-01-25T11:01:47;100929.38;;;10.71;100.00
21545;BME280;10933;50.754;11.508;2024-01-25T11:04:18;100931.81;;;9.96;100.00
21545;BME280;10933;50.754;11.508;2024-01-25T11:06:45;100942.28;;;10.24;100.00
21545;BME280;10933;50.754;11.508;2024-01-25T11:09:19;100945.59;;;10.33;100.00
21545;BME280;10933;50.754;11.508;2024-01-25T11:11:48;100947.03;;;10.29;100.00
21545;BME280;10933;50.754;11.508;2024-01-25T11:14:19;100957.72;;;10.49;100.00
21545;BME280;10933;50.754;11.508;2024-01-25T11:16:45;100941.28;;;10.12;100.00
21545;BME280;10933;50.754;11.508;2024-01-25T11:19:21;100947.59;;;10.44;100.00
21545;BME280;10933;50.754;11.508;2024-01-25T11:21:49;100941.72;;;10.54;100.00
21545;BME280;10933;50.754;11.508;2024-01-25T11:24:20;100942.81;;;10.78;100.00
21545;BME280;10933;50.754;11.508;2024-01-25T11:26:48;100948.06;;;10.35;100.00
21545;BME280;10933;50.754;11.508;2024-01-25T11:29:16;100943.41;;;9.90;100.00
21545;BME280;10933;50.754;11.508;2024-01-25T11:31:46;100945.97;;;9.72;100.00
21545;BME280;10933;50.754;11.508;2024-01-25T11:34:13;100940.56;;;9.85;100.00
21545;BME280;10933;50.754;11.508;2024-01-25T11:36:44;100947.66;;;10.31;100.00
21545;BME280;10933;50.754;11.508;2024-01-25T11:39:11;100937.47;;;9.75;100.00
21545;BME280;10933;50.754;11.508;2024-01-25T11:41:37;100939.19;;;10.21;100.00
21545;BME280;10933;50.754;11.508;2024-01-25T11:44:03;100940.06;;;10.01;100.00
21545;BME280;10933;50.754;11.508;2024-01-25T11:46:30;100941.06;;;10.14;100.00
21545;BME280;10933;50.754;11.508;2024-01-25T11:48:58;100928.81;;;10.18;100.00
21545;BME280;10933;50.754;11.508;2024-01-25T11:51:25;100917.09;;;9.92;100.00
21545;BME280;10933;50.754;11.508;2024-01-25T11:53:51;100917.16;;;9.79;100.00
21545;BME280;10933;50.754;11.508;2024-01-25T11:56:25;100908.31;;;9.46;100.00
21545;BME280;10933;50.754;11.508;2024-01-25T11:58:52;100914.25;;;9.74;100.00
21545;BME280;10933;50.754;11.508;2024-01-25T12:01:20;100923.22;;;10.13;100.00
21545;BME280;10933;50.754;11.508;2024-01-25T12:03:46;100926.63;;;9.88;100.00
21545;BME280;10933;50.754;11.508;2024-01-25T12:06:13;100921.63;;;9.98;100.00
21545;BME280;10933;50.754;11.508;2024-01-25T12:08:39;100920.13;;;10.09;100.00
21545;BME280;10933;50.754;11.508;2024-01-25T12:11:08;100918.88;;;10.12;100.00
21545;BME280;10933;50.754;11.508;2024-01-25T12:13:42;100918.16;;;9.78;100.00
21545;BME280;10933;50.754;11.508;2024-01-25T12:16:12;100927.97;;;9.66;100.00
21545;BME280;10933;50.754;11.508;2024-01-25T12:18:40;100924.50;;;9.32;100.00
21545;BME280;10933;50.754;11.508;2024-01-25T12:21:06;100914.38;;;9.21;100.00
21545;BME280;10933;50.754;11.508;2024-01-25T12:23:34;100935.47;;;9.24;100.00
21545;BME280;10933;50.754;11.508;2024-01-25T12:26:04;100925.53;;;9.25;100.00
21545;BME280;10933;50.754;11.508;2024-01-25T12:28:31;100910.84;;;9.21;100.00
21545;BME280;10933;50.754;11.508;2024-01-25T12:31:04;100912.28;;;9.23;100.00
21545;BME280;10933;50.754;11.508;2024-01-25T12:33:32;100910.22;;;9.12;100.00
21545;BME280;10933;50.754;11.508;2024-01-25T12:35:58;100909.00;;;9.28;100.00
21545;BME280;10933;50.754;11.508;2024-01-25T12:38:24;100900.50;;;8.98;100.00
21545;BME280;10933;50.754;11.508;2024-01-25T12:40:52;100894.50;;;8.96;100.00
21545;BME280;10933;50.754;11.508;2024-01-25T12:43:19;100906.09;;;8.96;100.00
21545;BME280;10933;50.754;11.508;2024-01-25T12:45:47;100899.69;;;9.17;100.00
21545;BME280;10933;50.754;11.508;2024-01-25T12:48:13;100899.06;;;9.15;100.00
21545;BME280;10933;50.754;11.508;2024-01-25T12:50:40;100906.09;;;9.29;100.00
21545;BME280;10933;50.754;11.508;2024-01-25T12:53:07;100912.28;;;9.23;100.00